createdAt,value
2019-02-21T00:00:11.029Z,11.12
2019-02-21T00:01:17.593Z,17.32
2019-02-21T00:02:29.700Z,15.80
2019-02-21T00:03:33.783Z,11.05
2019-02-21T00:04:39.152Z,11.55
2019-02-21T00:05:44.649Z,14.90
2019-02-21T00:06:50.186Z,12.93
2019-02-21T00:07:56.132Z,14.80
2019-02-21T00:09:01.977Z,14.53
2019-02-21T00:10:07.770Z,14.28
2019-02-21T00:11:16.428Z,13.13
2019-02-21T00:12:25.247Z,14.55
2019-02-21T00:13:29.356Z,17.65
2019-02-21T00:14:40.005Z,13.48
2019-02-21T00:15:46.768Z,16.23
2019-02-21T00:16:52.682Z,14.98
2019-02-21T00:17:59.927Z,20.88
2019-02-21T00:19:04.272Z,13.20
2019-02-21T00:20:13.340Z,16.48
2019-02-21T00:21:20.678Z,13.90
2019-02-21T00:22:31.188Z,12.25
2019-02-21T00:23:35.273Z,13.78
2019-02-21T00:24:48.263Z,14.25
2019-02-21T00:26:00.465Z,16.30
2019-02-21T00:27:06.117Z,13.83
2019-02-21T00:28:10.340Z,13.85
2019-02-21T00:29:16.041Z,13.68
2019-02-21T00:30:34.938Z,16.70
2019-02-21T00:31:35.445Z,15.53
2019-02-21T00:32:40.328Z,16.25
2019-02-21T00:33:44.434Z,14.73
2019-02-21T00:34:51.344Z,16.50
2019-02-21T00:35:57.536Z,16.87
2019-02-21T00:37:02.555Z,18.27
2019-02-21T00:38:17.205Z,15.63
2019-02-21T00:39:25.513Z,17.85
2019-02-21T00:40:31.145Z,18.25
2019-02-21T00:41:35.795Z,18.75
2019-02-21T00:42:43.474Z,16.82
2019-02-21T00:43:48.881Z,19.02
2019-02-21T00:44:52.956Z,14.87
2019-02-21T00:46:02.129Z,18.45
2019-02-21T00:47:14.859Z,16.30
2019-02-21T00:48:23.646Z,15.58
2019-02-21T00:49:30.354Z,14.98
2019-02-21T00:50:38.249Z,13.28
2019-02-21T00:51:46.828Z,15.10
2019-02-21T00:52:52.681Z,16.23
2019-02-21T00:54:03.837Z,17.75
2019-02-21T00:55:16.021Z,23.42
2019-02-21T00:56:30.756Z,18.87
2019-02-21T00:57:34.963Z,18.80
2019-02-21T00:58:44.238Z,16.75
2019-02-21T00:59:52.130Z,16.85
2019-02-21T01:00:58.078Z,25.40
2019-02-21T01:02:02.807Z,22.13
2019-02-21T01:03:10.550Z,25.05
2019-02-21T01:04:23.577Z,25.52
2019-02-21T01:05:32.013Z,23.35
2019-02-21T01:06:37.210Z,24.72
2019-02-21T01:07:47.185Z,26.77
2019-02-21T01:08:53.597Z,26.80
2019-02-21T01:09:58.769Z,29.05
2019-02-21T01:11:04.549Z,24.82
2019-02-21T01:12:08.982Z,29.82
2019-02-21T01:13:13.669Z,30.50
2019-02-21T01:14:29.361Z,26.10
2019-02-21T01:15:33.442Z,30.60
2019-02-21T01:16:40.586Z,34.38
2019-02-21T01:17:51.895Z,31.25
2019-02-21T01:18:55.948Z,31.15
2019-02-21T01:19:59.970Z,33.73
2019-02-21T01:21:24.147Z,32.13
2019-02-21T01:22:32.166Z,33.05
2019-02-21T01:23:36.260Z,32.35
2019-02-21T01:24:44.781Z,33.67
2019-02-21T01:25:51.809Z,33.88
2019-02-21T01:27:03.362Z,32.70
2019-02-21T01:28:07.644Z,33.08
2019-02-21T01:29:14.936Z,32.75
2019-02-21T01:30:30.748Z,33.35
2019-02-21T01:31:34.716Z,34.43
2019-02-21T01:32:41.077Z,33.63
2019-02-21T01:33:46.265Z,34.40
2019-02-21T01:34:54.599Z,32.60
2019-02-21T01:36:00.570Z,32.30
2019-02-21T01:37:05.124Z,33.02
2019-02-21T01:38:12.645Z,34.45
2019-02-21T01:39:21.624Z,35.38
2019-02-21T01:40:26.916Z,35.28
2019-02-21T01:41:32.596Z,40.40
2019-02-21T01:42:38.886Z,37.83
2019-02-21T01:43:43.982Z,35.70
2019-02-21T01:44:51.864Z,35.60
2019-02-21T01:45:55.766Z,36.00
2019-02-21T01:47:11.939Z,37.50
2019-02-21T01:48:10.284Z,36.98
2019-02-21T01:49:14.323Z,36.15
2019-02-21T01:50:19.114Z,31.77
2019-02-21T01:51:27.009Z,36.05
2019-02-21T01:52:42.460Z,33.58
2019-02-21T01:53:50.769Z,32.73
2019-02-21T01:55:01.274Z,35.80
2019-02-21T01:56:16.376Z,34.63
2019-02-21T01:58:36.314Z,36.53
2019-02-21T01:59:41.737Z,40.63
2019-02-21T02:00:49.345Z,38.55
2019-02-21T02:01:54.770Z,33.23
2019-02-21T02:03:03.992Z,39.25
2019-02-21T02:04:14.926Z,35.55
2019-02-21T02:05:20.336Z,33.45
2019-02-21T02:06:33.207Z,37.13
2019-02-21T02:07:37.286Z,35.33
2019-02-21T02:08:45.320Z,39.03
2019-02-21T02:09:57.118Z,36.58
2019-02-21T02:11:05.887Z,35.70
2019-02-21T02:12:11.637Z,38.42
2019-02-21T02:13:24.041Z,33.10
2019-02-21T02:14:23.564Z,36.80
2019-02-21T02:15:29.264Z,34.45
2019-02-21T02:16:34.339Z,37.67
2019-02-21T02:17:42.260Z,33.88
2019-02-21T02:18:46.808Z,31.57
2019-02-21T02:19:55.634Z,36.13
2019-02-21T02:21:14.712Z,35.05
2019-02-21T02:22:20.148Z,36.65
2019-02-21T02:23:26.912Z,33.23
2019-02-21T02:24:35.208Z,30.25
2019-02-21T02:25:45.504Z,32.90
2019-02-21T02:26:51.914Z,32.00
2019-02-21T02:27:59.451Z,37.65
2019-02-21T02:29:03.558Z,35.63
2019-02-21T02:30:14.445Z,34.25
2019-02-21T02:31:23.221Z,35.08
2019-02-21T02:32:26.442Z,39.67
2019-02-21T02:33:54.918Z,33.73
2019-02-21T02:34:39.973Z,33.63
2019-02-21T02:35:45.591Z,35.20
2019-02-21T02:36:55.163Z,34.33
2019-02-21T02:38:00.579Z,32.42
2019-02-21T02:39:06.032Z,33.88
2019-02-21T02:40:19.231Z,32.88
2019-02-21T02:41:26.224Z,29.77
2019-02-21T02:42:39.713Z,32.85
2019-02-21T02:43:45.643Z,30.25
2019-02-21T02:44:51.560Z,30.27
2019-02-21T02:45:57.527Z,33.20
2019-02-21T02:47:01.655Z,30.77
2019-02-21T02:48:06.151Z,32.53
2019-02-21T02:49:16.507Z,34.55
2019-02-21T02:51:28.313Z,33.45
2019-02-21T02:52:32.744Z,33.23
2019-02-21T02:53:39.074Z,33.92
2019-02-21T02:54:45.676Z,37.98
2019-02-21T02:55:51.742Z,31.82
2019-02-21T02:57:04.640Z,34.67
2019-02-21T02:58:10.575Z,32.98
2019-02-21T02:59:16.333Z,31.90
2019-02-21T03:00:23.678Z,34.27
2019-02-21T03:01:34.620Z,33.15
2019-02-21T03:02:38.478Z,37.83
2019-02-21T03:03:57.018Z,38.13
2019-02-21T03:04:56.575Z,38.02
2019-02-21T03:06:04.272Z,37.55
2019-02-21T03:07:12.864Z,38.90
2019-02-21T03:08:17.148Z,34.78
2019-02-21T03:09:22.885Z,37.60
2019-02-21T03:10:29.207Z,41.30
2019-02-21T03:11:40.342Z,35.23
2019-02-21T03:12:48.071Z,33.65
2019-02-21T03:13:52.197Z,35.48
2019-02-21T03:14:59.449Z,36.42
2019-02-21T03:16:05.036Z,40.43
2019-02-21T03:17:09.737Z,40.75
2019-02-21T03:18:23.221Z,44.15
2019-02-21T03:19:28.317Z,36.70
2019-02-21T03:20:32.526Z,36.80
2019-02-21T03:21:41.030Z,34.05
2019-02-21T03:22:45.616Z,38.25
2019-02-21T03:23:50.835Z,42.13
2019-02-21T03:25:02.385Z,41.10
2019-02-21T03:26:10.447Z,40.23
2019-02-21T03:27:17.314Z,40.65
2019-02-21T03:28:29.818Z,40.98
2019-02-21T03:29:35.051Z,41.33
2019-02-21T03:30:44.349Z,41.00
2019-02-21T03:31:54.813Z,37.73
2019-02-21T03:32:57.600Z,43.30
2019-02-21T03:34:13.594Z,38.48
2019-02-21T03:35:22.259Z,45.40
2019-02-21T03:36:28.037Z,40.05
2019-02-21T03:37:32.300Z,37.17
2019-02-21T03:38:37.618Z,37.40
2019-02-21T03:39:43.416Z,37.98
2019-02-21T03:40:56.242Z,40.90
2019-02-21T03:42:01.925Z,37.23
2019-02-21T03:43:14.875Z,34.45
2019-02-21T03:44:14.283Z,35.10
2019-02-21T03:45:22.009Z,36.17
2019-02-21T03:46:29.164Z,38.90
2019-02-21T03:47:33.668Z,38.90
2019-02-21T03:48:43.849Z,38.08
2019-02-21T03:49:45.691Z,41.40
2019-02-21T03:50:51.697Z,36.85
2019-02-21T03:51:58.496Z,38.38
2019-02-21T03:53:10.165Z,34.98
2019-02-21T03:54:17.235Z,36.77
2019-02-21T03:55:23.297Z,37.88
2019-02-21T03:56:30.673Z,36.00
2019-02-21T03:57:38.045Z,37.17
2019-02-21T03:58:45.248Z,40.40
2019-02-21T03:59:51.455Z,42.78
2019-02-21T04:00:58.261Z,39.78
2019-02-21T04:02:05.641Z,39.40
2019-02-21T04:03:12.873Z,43.45
2019-02-21T04:04:17.000Z,39.23
2019-02-21T04:05:22.970Z,39.00
2019-02-21T04:06:31.536Z,39.63
2019-02-21T04:07:37.663Z,37.48
2019-02-21T04:08:44.760Z,35.83
2019-02-21T04:09:52.435Z,42.35
2019-02-21T04:10:59.323Z,38.98
2019-02-21T04:12:14.284Z,39.80
2019-02-21T04:13:20.616Z,40.08
2019-02-21T04:14:24.808Z,35.55
2019-02-21T04:15:32.815Z,43.55
2019-02-21T04:16:37.327Z,41.05
2019-02-21T04:17:42.536Z,37.75
2019-02-21T04:18:50.969Z,38.70
2019-02-21T04:19:56.415Z,43.58
2019-02-21T04:21:01.648Z,43.10
2019-02-21T04:22:12.759Z,43.13
2019-02-21T04:23:18.415Z,46.53
2019-02-21T04:24:23.315Z,38.42
2019-02-21T04:25:32.200Z,38.73
2019-02-21T04:26:36.709Z,42.80
2019-02-21T04:27:40.723Z,39.48
2019-02-21T04:28:49.193Z,38.17
2019-02-21T04:29:53.209Z,40.20
2019-02-21T04:30:58.337Z,43.05
2019-02-21T04:32:16.606Z,46.10
2019-02-21T04:33:15.971Z,42.08
2019-02-21T04:34:20.341Z,41.10
2019-02-21T04:35:34.991Z,37.60
2019-02-21T04:36:42.592Z,35.40
2019-02-21T04:37:53.413Z,40.80
2019-02-21T04:39:03.433Z,42.00
2019-02-21T04:40:08.996Z,39.03
2019-02-21T04:41:24.822Z,40.10
2019-02-21T04:42:29.875Z,47.23
2019-02-21T04:43:38.444Z,42.17
2019-02-21T04:44:50.837Z,46.60
2019-02-21T04:45:51.359Z,42.27
2019-02-21T04:48:23.444Z,47.60
2019-02-21T04:49:29.035Z,46.70
2019-02-21T04:50:41.341Z,50.92
2019-02-21T04:51:47.077Z,50.70
2019-02-21T04:52:54.801Z,46.95
2019-02-21T04:54:01.899Z,45.75
2019-02-21T04:55:07.711Z,48.65
2019-02-21T04:56:16.392Z,50.85
2019-02-21T04:57:27.867Z,48.75
2019-02-21T04:58:35.051Z,45.00
2019-02-21T04:59:40.630Z,54.00
2019-02-21T05:00:49.697Z,53.60
2019-02-21T05:01:55.745Z,49.25
2019-02-21T05:03:04.560Z,52.73
2019-02-21T05:04:14.228Z,49.93
2019-02-21T05:05:21.325Z,49.30
2019-02-21T05:06:28.358Z,48.83
2019-02-21T05:07:36.059Z,49.38
2019-02-21T05:08:46.318Z,48.42
2019-02-21T05:10:03.742Z,52.53
2019-02-21T05:11:09.260Z,54.30
2019-02-21T05:12:19.499Z,51.85
2019-02-21T05:13:23.817Z,52.80
2019-02-21T05:14:28.037Z,51.42
2019-02-21T05:15:33.284Z,50.52
2019-02-21T05:16:37.298Z,52.05
2019-02-21T05:17:41.345Z,47.73
2019-02-21T05:18:46.031Z,62.60
2019-02-21T05:19:57.334Z,56.05
2019-02-21T05:20:58.122Z,56.92
2019-02-21T05:22:06.729Z,53.80
2019-02-21T05:23:10.833Z,58.80
2019-02-21T05:24:17.432Z,54.58
2019-02-21T05:25:22.633Z,55.20
2019-02-21T05:26:28.715Z,54.70
2019-02-21T05:27:34.083Z,61.77
2019-02-21T05:28:41.402Z,56.80
2019-02-21T05:29:46.449Z,51.45
2019-02-21T05:30:52.059Z,50.55
2019-02-21T05:31:59.812Z,57.58
2019-02-21T05:33:11.183Z,54.63
2019-02-21T05:34:35.397Z,60.73
2019-02-21T05:35:49.029Z,56.63
2019-02-21T05:37:01.013Z,55.03
2019-02-21T05:38:19.175Z,58.87
2019-02-21T05:39:36.888Z,56.92
2019-02-21T05:40:43.269Z,54.10
2019-02-21T05:42:00.840Z,57.70
2019-02-21T05:43:23.031Z,56.98
2019-02-21T05:44:33.544Z,62.03
2019-02-21T05:45:46.817Z,58.55
2019-02-21T05:47:04.206Z,54.48
2019-02-21T05:48:14.298Z,57.45
2019-02-21T05:50:32.636Z,56.90
2019-02-21T05:51:38.265Z,59.53
2019-02-21T05:53:00.327Z,53.13
2019-02-21T05:54:05.939Z,59.20
2019-02-21T05:55:14.203Z,56.20
2019-02-21T05:56:20.157Z,57.33
2019-02-21T05:57:33.124Z,57.20
2019-02-21T05:58:43.315Z,57.05
2019-02-21T05:59:58.106Z,56.70
2019-02-21T06:01:21.172Z,55.17
2019-02-21T06:02:52.512Z,54.50
2019-02-21T06:03:49.312Z,54.63
2019-02-21T06:05:19.284Z,58.20
2019-02-21T06:06:24.568Z,61.13
2019-02-21T06:07:31.197Z,56.35
2019-02-21T06:08:37.059Z,57.60
2019-02-21T06:09:50.581Z,53.55
2019-02-21T06:11:00.011Z,48.35
2019-02-21T06:12:14.562Z,54.05
2019-02-21T06:13:23.390Z,50.03
2019-02-21T06:14:39.967Z,54.00
2019-02-21T06:15:48.340Z,58.42
2019-02-21T06:16:55.777Z,56.08
2019-02-21T06:18:21.254Z,60.05
2019-02-21T06:19:27.918Z,56.42
2019-02-21T06:20:49.868Z,58.60
2019-02-21T06:22:10.575Z,55.30
2019-02-21T06:23:16.683Z,54.60
2019-02-21T06:24:22.526Z,62.70
2019-02-21T06:25:31.654Z,55.03
2019-02-21T06:26:40.051Z,56.20
2019-02-21T06:27:51.509Z,58.25
2019-02-21T06:29:03.933Z,61.50
2019-02-21T06:30:19.160Z,60.80
2019-02-21T06:31:23.292Z,58.00
2019-02-21T06:32:30.595Z,56.45
2019-02-21T06:33:34.877Z,62.95
2019-02-21T06:34:39.401Z,60.63
2019-02-21T06:35:43.419Z,66.02
2019-02-21T06:36:49.385Z,63.92
2019-02-21T06:37:53.413Z,60.75
2019-02-21T06:39:00.467Z,63.40
2019-02-21T06:40:13.171Z,62.15
2019-02-21T06:41:13.566Z,59.35
2019-02-21T06:42:17.635Z,63.45
2019-02-21T06:43:26.533Z,61.13
2019-02-21T06:44:43.995Z,63.25
2019-02-21T06:45:50.705Z,66.28
2019-02-21T06:46:55.447Z,65.00
2019-02-21T06:48:04.957Z,62.98
2019-02-21T06:49:11.437Z,66.02
2019-02-21T06:50:26.868Z,65.28
2019-02-21T06:51:30.225Z,65.85
2019-02-21T06:52:36.776Z,66.53
2019-02-21T06:53:42.870Z,64.67
2019-02-21T06:54:48.240Z,63.98
2019-02-21T06:55:53.011Z,67.75
2019-02-21T06:57:00.222Z,63.05
2019-02-21T06:58:05.982Z,69.03
2019-02-21T06:59:11.623Z,63.50
2019-02-21T07:00:15.880Z,66.00
2019-02-21T07:01:28.916Z,66.82
2019-02-21T07:02:30.061Z,60.52
2019-02-21T07:03:34.915Z,60.55
2019-02-21T07:04:40.321Z,62.55
2019-02-21T07:05:47.465Z,59.33
2019-02-21T07:06:51.568Z,69.30
2019-02-21T07:08:08.767Z,65.15
2019-02-21T07:09:13.377Z,59.03
2019-02-21T07:10:20.490Z,62.67
2019-02-21T07:11:26.065Z,64.65
2019-02-21T07:12:31.981Z,58.28
2019-02-21T07:15:05.889Z,61.73
2019-02-21T07:16:13.162Z,60.08
2019-02-21T07:17:20.339Z,60.50
2019-02-21T07:18:28.661Z,60.12
2019-02-21T07:19:34.973Z,64.72
2019-02-21T07:20:41.086Z,61.73
2019-02-21T07:21:47.546Z,59.67
2019-02-21T07:22:53.253Z,61.23
2019-02-21T07:24:02.296Z,62.10
2019-02-21T07:25:13.055Z,57.65
2019-02-21T07:26:19.554Z,61.48
2019-02-21T07:27:25.111Z,59.53
2019-02-21T07:28:31.783Z,63.78
2019-02-21T07:29:42.430Z,62.80
2019-02-21T07:30:52.481Z,60.80
2019-02-21T07:31:56.536Z,58.98
2019-02-21T07:33:03.450Z,67.62
2019-02-21T07:34:13.906Z,59.70
2019-02-21T07:35:23.115Z,59.77
2019-02-21T07:36:31.568Z,59.10
2019-02-21T07:37:58.608Z,58.28
2019-02-21T07:39:16.903Z,58.17
2019-02-21T07:40:19.940Z,60.95
2019-02-21T07:41:23.285Z,65.17
2019-02-21T07:42:32.109Z,62.20
2019-02-21T07:43:37.482Z,57.23
2019-02-21T07:44:45.465Z,56.53
2019-02-21T07:45:57.482Z,58.80
2019-02-21T07:48:31.079Z,57.98
2019-02-21T07:49:36.173Z,61.02
2019-02-21T07:50:41.188Z,63.20
2019-02-21T07:51:48.480Z,60.00
2019-02-21T07:53:02.419Z,62.53
2019-02-21T07:54:04.438Z,57.23
2019-02-21T07:55:11.889Z,58.40
2019-02-21T07:56:20.066Z,56.02
2019-02-21T07:57:26.813Z,56.02
2019-02-21T08:02:53.645Z,62.85
2019-02-21T08:08:32.450Z,55.52
2019-02-21T08:09:45.707Z,62.05
2019-02-21T08:14:35.298Z,49.67
2019-02-21T08:24:06.715Z,51.92
2019-02-21T08:25:19.160Z,53.65
2019-02-21T08:26:25.375Z,49.08
2019-02-21T08:27:31.774Z,51.53
2019-02-21T08:28:39.468Z,48.58
2019-02-21T08:29:49.794Z,49.08
2019-02-21T08:32:00.552Z,49.67
2019-02-21T08:33:08.722Z,45.63
2019-02-21T08:34:17.824Z,46.00
2019-02-21T08:35:25.500Z,48.30
2019-02-21T08:36:34.404Z,47.05
2019-02-21T08:37:38.709Z,45.78
2019-02-21T08:38:48.027Z,45.45
2019-02-21T08:39:56.970Z,44.95
2019-02-21T08:41:04.665Z,44.38
2019-02-21T08:42:09.444Z,43.95
2019-02-21T08:43:19.948Z,43.73
2019-02-21T08:44:24.183Z,47.65
2019-02-21T08:45:28.937Z,43.90
2019-02-21T08:46:37.237Z,46.83
2019-02-21T08:47:44.885Z,45.20
2019-02-21T08:48:51.145Z,42.58
2019-02-21T08:49:55.302Z,45.63
2019-02-21T08:51:06.376Z,44.00
2019-02-21T08:52:20.346Z,51.10
2019-02-21T08:53:30.863Z,46.68
2019-02-21T08:54:37.080Z,46.10
2019-02-21T08:55:48.571Z,44.83
2019-02-21T08:57:00.394Z,40.70
2019-02-21T08:58:11.452Z,46.60
2019-02-21T08:59:18.012Z,49.80
2019-02-21T09:00:24.191Z,47.90
2019-02-21T09:01:31.324Z,50.55
2019-02-21T09:02:36.038Z,44.48
2019-02-21T09:03:41.988Z,44.38
2019-02-21T09:04:46.311Z,50.58
2019-02-21T09:05:50.847Z,46.40
2019-02-21T09:06:56.690Z,46.20
2019-02-21T09:08:04.376Z,49.42
2019-02-21T09:09:15.048Z,50.10
2019-02-21T09:10:18.293Z,46.23
2019-02-21T09:11:25.800Z,44.73
2019-02-21T09:12:33.876Z,52.03
2019-02-21T09:13:41.868Z,44.40
2019-02-21T09:14:55.107Z,47.10
2019-02-21T09:16:02.528Z,50.65
2019-02-21T09:17:14.222Z,47.98
2019-02-21T09:18:23.630Z,48.65
2019-02-21T09:19:32.067Z,52.80
2019-02-21T09:20:36.497Z,46.88
2019-02-21T09:21:47.044Z,46.25
2019-02-21T09:22:53.692Z,49.80
2019-02-21T09:23:58.632Z,50.25
2019-02-21T09:25:05.834Z,53.58
2019-02-21T09:26:16.480Z,56.05
2019-02-21T09:27:23.047Z,53.20
2019-02-21T09:28:31.335Z,48.52
2019-02-21T09:29:35.886Z,51.98
2019-02-21T09:30:42.144Z,47.30
2019-02-21T09:31:46.976Z,54.38
2019-02-21T09:33:00.530Z,50.55
2019-02-21T09:35:34.782Z,56.35
2019-02-21T09:36:41.465Z,55.43
2019-02-21T09:37:52.240Z,55.25
2019-02-21T09:38:56.374Z,50.70
2019-02-21T09:40:02.301Z,60.17
2019-02-21T09:41:16.084Z,52.55
2019-02-21T09:42:23.014Z,57.67
2019-02-21T09:43:28.390Z,58.05
2019-02-21T09:44:42.806Z,57.17
2019-02-21T09:45:50.259Z,55.23
2019-02-21T09:47:01.763Z,55.83
2019-02-21T09:48:14.562Z,58.33
2019-02-21T09:49:25.634Z,62.13
2019-02-21T09:50:38.300Z,61.58
2019-02-21T09:51:48.136Z,60.88
2019-02-21T09:52:55.340Z,62.17
2019-02-21T09:53:59.958Z,60.63
2019-02-21T09:55:20.516Z,63.78
2019-02-21T09:57:36.566Z,60.75
2019-02-21T09:58:41.426Z,62.43
2019-02-21T09:59:50.944Z,58.02
2019-02-21T10:00:55.642Z,63.00
2019-02-21T10:02:01.327Z,56.05
2019-02-21T10:03:06.809Z,66.05
2019-02-21T10:04:11.065Z,74.95
2019-02-21T10:05:15.598Z,63.20
2019-02-21T10:06:23.164Z,63.63
2019-02-21T10:07:29.661Z,62.38
2019-02-21T10:08:53.498Z,63.87
2019-02-21T10:09:57.726Z,64.45
2019-02-21T10:11:06.906Z,65.95
2019-02-21T10:12:18.343Z,61.53
2019-02-21T10:13:25.175Z,61.90
2019-02-21T10:14:34.979Z,65.37
2019-02-21T10:15:53.686Z,63.08
2019-02-21T10:16:52.969Z,62.15
2019-02-21T10:18:04.822Z,58.48
2019-02-21T10:19:29.598Z,63.23
2019-02-21T10:20:36.864Z,62.93
2019-02-21T10:21:44.361Z,65.97
2019-02-21T10:22:45.216Z,61.33
2019-02-21T10:23:53.218Z,62.90
2019-02-21T10:25:01.009Z,62.43
2019-02-21T10:26:07.888Z,65.70
2019-02-21T10:27:16.172Z,62.40
2019-02-21T10:29:06.430Z,60.03
2019-02-21T10:29:42.885Z,62.38
2019-02-21T10:30:50.309Z,63.40
2019-02-21T10:31:57.058Z,63.25
2019-02-21T10:33:11.449Z,64.03
2019-02-21T10:34:28.864Z,62.58
2019-02-21T10:35:35.605Z,68.20
2019-02-21T10:36:42.518Z,63.50
2019-02-21T10:37:51.127Z,65.50
2019-02-21T10:39:07.204Z,65.57
2019-02-21T10:40:18.929Z,65.52
2019-02-21T10:41:26.325Z,64.22
2019-02-21T10:42:38.200Z,56.45
2019-02-21T10:43:44.450Z,66.60
2019-02-21T10:44:54.524Z,56.15
2019-02-21T10:46:01.579Z,60.48
2019-02-21T10:47:17.266Z,61.02
2019-02-21T10:48:25.427Z,62.23
2019-02-21T10:49:40.102Z,62.10
2019-02-21T10:52:15.640Z,64.10
2019-02-21T10:53:41.107Z,62.30
2019-02-21T10:55:05.570Z,70.62
2019-02-21T10:56:13.700Z,56.10
2019-02-21T10:57:19.659Z,61.98
2019-02-21T10:58:30.880Z,62.88
2019-02-21T10:59:46.323Z,59.70
2019-02-21T11:00:47.328Z,63.70
2019-02-21T11:01:53.911Z,63.68
2019-02-21T11:03:01.433Z,63.52
2019-02-21T11:04:08.640Z,57.58
2019-02-21T11:05:16.972Z,56.73
2019-02-21T11:06:23.214Z,65.45
2019-02-21T11:07:29.278Z,63.78
2019-02-21T11:08:37.774Z,61.83
2019-02-21T11:09:45.668Z,58.98
2019-02-21T11:10:51.605Z,57.62
2019-02-21T11:11:58.372Z,59.18
2019-02-21T11:14:27.484Z,55.33
2019-02-21T11:15:36.588Z,58.10
2019-02-21T11:16:43.132Z,58.63
2019-02-21T11:17:49.402Z,54.75
2019-02-21T11:18:57.968Z,53.15
2019-02-21T11:20:06.649Z,56.70
2019-02-21T11:21:17.241Z,60.52
2019-02-21T11:22:20.568Z,50.27
2019-02-21T11:23:27.436Z,57.25
2019-02-21T11:24:36.406Z,60.03
2019-02-21T11:25:45.724Z,60.48
2019-02-21T11:26:49.762Z,59.53
2019-02-21T11:28:00.183Z,58.28
2019-02-21T11:30:13.552Z,58.80
2019-02-21T11:31:18.692Z,53.98
2019-02-21T11:32:24.156Z,54.67
2019-02-21T11:33:33.908Z,61.15
2019-02-21T11:34:40.953Z,54.93
2019-02-21T11:35:47.068Z,54.58
2019-02-21T11:36:54.793Z,59.45
2019-02-21T11:38:00.827Z,56.65
2019-02-21T11:39:13.612Z,49.98
2019-02-21T11:40:21.002Z,53.78
2019-02-21T11:41:38.377Z,55.80
2019-02-21T11:42:53.566Z,55.48
2019-02-21T11:43:48.629Z,63.60
2019-02-21T11:45:00.822Z,56.37
2019-02-21T11:46:09.418Z,52.73
2019-02-21T11:47:15.378Z,56.98
2019-02-21T11:48:19.476Z,60.67
2019-02-21T11:49:26.102Z,54.42
2019-02-21T11:50:32.823Z,53.60
2019-02-21T11:51:37.644Z,53.05
2019-02-21T11:52:45.127Z,54.58
2019-02-21T11:53:50.845Z,57.15
2019-02-21T11:54:58.217Z,48.28
2019-02-21T11:56:05.635Z,54.93
2019-02-21T11:57:13.229Z,51.80
2019-02-21T11:58:19.614Z,52.98
2019-02-21T11:59:26.974Z,46.73
2019-02-21T12:00:37.429Z,47.03
2019-02-21T12:01:48.684Z,46.42
2019-02-21T12:03:00.689Z,47.55
2019-02-21T12:04:15.518Z,45.23
2019-02-21T12:05:30.432Z,45.23
2019-02-21T12:06:27.549Z,46.83
2019-02-21T12:07:35.419Z,44.05
2019-02-21T12:08:45.347Z,44.30
2019-02-21T12:09:50.998Z,47.27
2019-02-21T12:10:59.040Z,40.78
2019-02-21T12:12:05.283Z,46.02
2019-02-21T12:13:10.084Z,43.08
2019-02-21T12:14:18.178Z,43.78
2019-02-21T12:15:24.983Z,42.30
2019-02-21T12:16:31.474Z,42.50
2019-02-21T12:17:42.305Z,43.83
2019-02-21T12:18:46.920Z,45.45
2019-02-21T12:19:53.310Z,44.85
2019-02-21T12:21:02.372Z,44.00
2019-02-21T12:22:15.199Z,47.55
2019-02-21T12:23:20.966Z,42.60
2019-02-21T12:24:26.351Z,42.50
2019-02-21T12:25:34.507Z,42.48
2019-02-21T12:26:43.581Z,41.90
2019-02-21T12:27:47.836Z,42.98
2019-02-21T12:28:58.410Z,41.00
2019-02-21T12:30:17.007Z,41.70
2019-02-21T12:31:18.752Z,41.45
2019-02-21T12:32:27.092Z,40.78
2019-02-21T12:33:37.750Z,39.50
2019-02-21T12:34:43.507Z,39.90
2019-02-21T12:35:52.016Z,40.45
2019-02-21T12:37:04.147Z,43.23
2019-02-21T12:38:08.766Z,40.30
2019-02-21T12:39:15.669Z,40.30
2019-02-21T12:40:23.569Z,42.67
2019-02-21T12:41:33.828Z,43.05
2019-02-21T12:42:39.184Z,46.02
2019-02-21T12:43:44.929Z,41.68
2019-02-21T12:44:51.763Z,40.20
2019-02-21T12:46:01.965Z,43.75
2019-02-21T12:47:09.317Z,41.28
2019-02-21T12:48:19.295Z,38.05
2019-02-21T12:49:32.578Z,40.63
2019-02-21T12:50:44.724Z,43.55
2019-02-21T12:51:49.678Z,43.28
2019-02-21T12:52:56.487Z,44.58
2019-02-21T12:54:04.913Z,42.93
2019-02-21T12:55:12.407Z,40.33
2019-02-21T12:56:19.063Z,43.55
2019-02-21T12:57:27.603Z,40.08
2019-02-21T12:58:34.362Z,42.93
2019-02-21T12:59:40.262Z,37.70
2019-02-21T13:00:47.621Z,39.03
2019-02-21T13:01:53.429Z,40.92
2019-02-21T13:03:00.062Z,42.23
2019-02-21T13:04:04.597Z,39.33
2019-02-21T13:05:09.121Z,39.13
2019-02-21T13:06:23.404Z,41.05
2019-02-21T13:07:32.621Z,38.48
2019-02-21T13:08:39.585Z,41.28
2019-02-21T13:09:44.993Z,40.88
2019-02-21T13:10:49.581Z,42.03
2019-02-21T13:11:53.850Z,36.48
2019-02-21T13:13:01.332Z,39.70
2019-02-21T13:14:07.619Z,41.77
2019-02-21T13:15:13.453Z,37.95
2019-02-21T13:16:17.451Z,43.80
2019-02-21T13:17:21.481Z,40.75
2019-02-21T13:18:26.791Z,39.55
2019-02-21T13:19:34.602Z,40.38
2019-02-21T13:20:37.477Z,39.48
2019-02-21T13:21:41.428Z,36.42
2019-02-21T13:22:46.693Z,38.92
2019-02-21T13:23:52.405Z,37.38
2019-02-21T13:24:57.741Z,42.25
2019-02-21T13:26:03.369Z,42.80
2019-02-21T13:27:09.666Z,39.65
2019-02-21T13:28:16.171Z,41.65
2019-02-21T13:29:21.979Z,39.92
2019-02-21T13:30:26.195Z,38.00
2019-02-21T13:31:32.144Z,35.03
2019-02-21T13:32:44.209Z,39.78
2019-02-21T13:33:51.184Z,41.60
2019-02-21T13:34:58.979Z,39.55
2019-02-21T13:36:04.409Z,40.67
2019-02-21T13:37:28.266Z,37.75
2019-02-21T13:38:36.667Z,38.42
2019-02-21T13:39:49.543Z,38.33
2019-02-21T13:40:59.047Z,37.30
2019-02-21T13:42:10.192Z,38.42
2019-02-21T13:43:16.541Z,36.48
2019-02-21T13:44:22.647Z,39.65
2019-02-21T13:45:27.683Z,39.23
2019-02-21T13:46:41.073Z,37.23
2019-02-21T13:47:46.033Z,35.65
2019-02-21T13:48:56.221Z,35.17
2019-02-21T13:50:07.643Z,36.77
2019-02-21T13:51:13.693Z,34.80
2019-02-21T13:52:18.146Z,32.75
2019-02-21T13:53:28.943Z,35.30
2019-02-21T13:54:31.975Z,34.33
2019-02-21T13:55:36.361Z,33.78
2019-02-21T13:56:43.367Z,36.45
2019-02-21T13:57:50.623Z,35.98
2019-02-21T13:58:55.486Z,34.75
2019-02-21T14:00:01.362Z,34.83
2019-02-21T14:01:06.634Z,33.28
2019-02-21T14:02:15.650Z,34.55
2019-02-21T14:03:19.862Z,32.80
2019-02-21T14:04:26.570Z,36.80
2019-02-21T14:05:39.129Z,38.88
2019-02-21T14:06:44.130Z,37.60
2019-02-21T14:07:55.153Z,35.03
2019-02-21T14:09:04.683Z,30.30
2019-02-21T14:10:18.916Z,34.75
2019-02-21T14:11:26.469Z,33.83
2019-02-21T14:12:32.313Z,33.40
2019-02-21T14:13:42.153Z,32.85
2019-02-21T14:14:51.319Z,32.83
2019-02-21T14:15:54.774Z,32.95
2019-02-21T14:17:14.838Z,29.40
2019-02-21T14:18:18.111Z,34.75
2019-02-21T14:19:22.141Z,34.40
2019-02-21T14:20:30.882Z,33.33
2019-02-21T14:21:38.110Z,31.37
2019-02-21T14:22:45.472Z,30.92
2019-02-21T14:23:52.557Z,29.67
2019-02-21T14:24:57.969Z,27.10
2019-02-21T14:26:06.813Z,31.70
2019-02-21T14:27:13.315Z,27.82
2019-02-21T14:28:18.155Z,29.20
2019-02-21T14:29:25.973Z,28.35
2019-02-21T14:30:36.964Z,30.32
2019-02-21T14:31:42.688Z,25.00
2019-02-21T14:33:17.314Z,26.87
2019-02-21T14:34:05.961Z,24.85
2019-02-21T14:35:15.597Z,25.70
2019-02-21T14:36:23.209Z,27.13
2019-02-21T14:37:40.903Z,22.93
2019-02-21T14:38:45.998Z,26.48
2019-02-21T14:39:52.486Z,23.40
2019-02-21T14:41:03.672Z,22.80
2019-02-21T14:42:10.317Z,24.00
2019-02-21T14:43:19.959Z,21.00
2019-02-21T14:44:25.916Z,24.35
2019-02-21T14:45:31.687Z,23.92
2019-02-21T14:46:39.897Z,22.10
2019-02-21T14:47:51.342Z,22.82
2019-02-21T14:48:58.407Z,23.42
2019-02-21T14:50:06.795Z,22.98
2019-02-21T14:51:13.825Z,22.93
2019-02-21T14:52:43.650Z,25.88
2019-02-21T14:53:50.887Z,23.57
2019-02-21T14:54:56.878Z,23.12
2019-02-21T14:56:10.397Z,24.98
2019-02-21T14:58:30.808Z,23.95
2019-02-21T14:59:36.205Z,23.77
2019-02-21T15:00:44.968Z,25.17
2019-02-21T15:01:54.127Z,21.82
2019-02-21T15:03:01.131Z,23.57
2019-02-21T15:04:07.157Z,24.30
2019-02-21T15:05:16.739Z,22.90
2019-02-21T15:06:26.977Z,20.40
2019-02-21T15:07:32.614Z,24.10
2019-02-21T15:08:38.064Z,23.77
2019-02-21T15:09:47.120Z,23.20
2019-02-21T15:10:59.343Z,23.87
2019-02-21T15:12:07.778Z,24.05
2019-02-21T15:13:19.857Z,23.85
2019-02-21T15:14:27.008Z,25.25